Newville, PA (17241)

4:07 PM EDT on July 01, 2015 (GMT -0400)
Upper Mifflin Township | | Change Station
CLOSE
Current Station
Personal Weather Station
Location: Newville, PA
Elevation: 659 ft
Nearby Weather Stations

Elev 659 ft 40.21 °N, 77.49 °W | Updated 15 seconds ago

Mostly Cloudy
Mostly Cloudy
82.9 °F
Feels Like 87 °F
N
6.9
Wind Variable Wind from WNW
Gusts 9.2 mph

Today
High -- | Low -- °F
--% Chance of Precip.
Yesterday
High -- | Low -- °F
Precip. -- in
5:43 AM 8:42 PM
Full, 100% visible
Pressure 29.83 in
Visibility 10.0 miles
Clouds Few 6000 ft
Heat Index 87 °F
Dew Point 70 °F
Humidity 65%
Rainfall 0.00 in
Snow Depth Not available.
UV 0.0 out of 12
Pollen 2.60 out of 12
Air Quality Not available.
Flu Activity Not available.
METAR KCXY 011956Z 27012G20KT 10SM FEW060 27/14 A2983 RMK AO2 SLP100 T02670139

More Conditions Fewer Conditions

Pressure 29.83 in
Visibility 10.0 miles
Clouds Few 6000 ft
Heat Index 87 °F
Dew Point 70 °F
Humidity 65%
Rainfall 0.00 in
Snow Depth Not available.
UV 0.0 out of 12
Pollen 2.60 out of 12
Air Quality Not available.
Flu Activity Not available.
METAR KCXY 011956Z 27012G20KT 10SM FEW060 27/14 A2983 RMK AO2 SLP100 T02670139

More Conditions Fewer Conditions

10-Day Weather Forecast

×

Almanac

Astronomy

Jul. 01, 2015 Rise Set
Actual Time
Civil Twilight
Nautical Twilight
Astronomical Twilight
Moon
Length of Visible Light
Length of Day
Tomorrow will be .
, % of the Moon is Illuminated

Today's Extremes

State Highs State Lows

Community

WunderPhotos

Upload Photos

1,834,269 photos uploaded!

WunderBlogs® & News

Nearby

Air Quality

  Air Quality AQ Index Pollutant
Not available.

Snow Depth

Station Depth Elevation

Earthquake Activity

City Distance Mag. Time & Date
Minimum magnitude displayed is 2.5.

Coastal Water Temperatures

Place Temperature

Stations

Nearby Weather Stations

Station Location Temp. Windchill Dew Point Humidity Wind Precip. Elev Updated Type